sensor_id;sensor_type;location;lat;lon;timestamp;P1;durP1;ratioP1;P2;durP2;ratioP2
78581;SDS011;67878;46.242;5.974;2023-04-29T00:02:17;3.92;;;1.90;;
78581;SDS011;67878;46.242;5.974;2023-04-29T00:04:43;2.00;;;1.80;;
78581;SDS011;67878;46.242;5.974;2023-04-29T00:07:08;2.03;;;1.67;;
78581;SDS011;67878;46.242;5.974;2023-04-29T00:09:34;2.88;;;2.03;;
78581;SDS011;67878;46.242;5.974;2023-04-29T00:12:01;2.20;;;2.00;;
78581;SDS011;67878;46.242;5.974;2023-04-29T00:14:27;2.97;;;1.95;;
78581;SDS011;67878;46.242;5.974;2023-04-29T00:16:52;3.17;;;1.60;;
78581;SDS011;67878;46.242;5.974;2023-04-29T00:19:18;2.47;;;1.80;;
78581;SDS011;67878;46.242;5.974;2023-04-29T00:21:44;2.63;;;1.80;;
78581;SDS011;67878;46.242;5.974;2023-04-29T00:24:09;2.42;;;1.83;;
78581;SDS011;67878;46.242;5.974;2023-04-29T00:26:35;1.70;;;1.60;;
78581;SDS011;67878;46.242;5.974;2023-04-29T00:29:01;3.10;;;1.80;;
78581;SDS011;67878;46.242;5.974;2023-04-29T00:31:26;1.45;;;1.35;;
78581;SDS011;67878;46.242;5.974;2023-04-29T00:33:52;1.88;;;1.70;;
78581;SDS011;67878;46.242;5.974;2023-04-29T00:36:18;1.85;;;1.63;;
78581;SDS011;67878;46.242;5.974;2023-04-29T00:38:44;2.28;;;1.52;;
78581;SDS011;67878;46.242;5.974;2023-04-29T00:41:09;2.33;;;1.42;;
78581;SDS011;67878;46.242;5.974;2023-04-29T00:43:35;3.42;;;1.67;;
78581;SDS011;67878;46.242;5.974;2023-04-29T00:46:00;2.55;;;1.50;;
78581;SDS011;67878;46.242;5.974;2023-04-29T00:48:26;1.67;;;1.58;;
78581;SDS011;67878;46.242;5.974;2023-04-29T00:50:51;2.67;;;1.63;;
78581;SDS011;67878;46.242;5.974;2023-04-29T00:53:17;2.45;;;1.60;;
78581;SDS011;67878;46.242;5.974;2023-04-29T00:55:42;1.65;;;1.42;;
78581;SDS011;67878;46.242;5.974;2023-04-29T00:58:08;2.13;;;1.92;;
78581;SDS011;67878;46.242;5.974;2023-04-29T01:00:34;1.60;;;1.45;;
78581;SDS011;67878;46.242;5.974;2023-04-29T01:03:01;1.83;;;1.40;;
78581;SDS011;67878;46.242;5.974;2023-04-29T01:05:28;1.98;;;1.70;;
78581;SDS011;67878;46.242;5.974;2023-04-29T01:07:57;2.85;;;1.52;;
78581;SDS011;67878;46.242;5.974;2023-04-29T01:13:39;1.73;;;1.63;;
78581;SDS011;67878;46.242;5.974;2023-04-29T01:16:36;3.20;;;1.40;;
78581;SDS011;67878;46.242;5.974;2023-04-29T01:19:21;2.20;;;1.50;;
78581;SDS011;67878;46.242;5.974;2023-04-29T01:22:00;2.53;;;1.52;;
78581;SDS011;67878;46.242;5.974;2023-04-29T01:24:26;2.35;;;1.40;;
78581;SDS011;67878;46.242;5.974;2023-04-29T01:26:54;1.77;;;1.58;;
78581;SDS011;67878;46.242;5.974;2023-04-29T01:29:39;1.77;;;1.50;;
78581;SDS011;67878;46.242;5.974;2023-04-29T01:32:11;1.88;;;1.52;;
78581;SDS011;67878;46.242;5.974;2023-04-29T01:37:19;1.63;;;1.52;;
78581;SDS011;67878;46.242;5.974;2023-04-29T01:44:55;2.10;;;1.50;;
78581;SDS011;67878;46.242;5.974;2023-04-29T01:47:25;1.42;;;1.33;;
78581;SDS011;67878;46.242;5.974;2023-04-29T01:49:51;2.75;;;1.70;;
78581;SDS011;67878;46.242;5.974;2023-04-29T01:52:17;1.67;;;1.58;;
78581;SDS011;67878;46.242;5.974;2023-04-29T01:54:42;2.65;;;1.48;;
78581;SDS011;67878;46.242;5.974;2023-04-29T01:57:08;1.83;;;1.48;;
78581;SDS011;67878;46.242;5.974;2023-04-29T01:59:34;2.35;;;1.42;;
78581;SDS011;67878;46.242;5.974;2023-04-29T02:02:00;1.40;;;1.27;;
78581;SDS011;67878;46.242;5.974;2023-04-29T02:04:25;1.40;;;1.30;;
78581;SDS011;67878;46.242;5.974;2023-04-29T02:06:52;1.55;;;1.40;;
78581;SDS011;67878;46.242;5.974;2023-04-29T02:09:18;2.42;;;1.67;;
78581;SDS011;67878;46.242;5.974;2023-04-29T02:11:43;1.95;;;1.48;;
78581;SDS011;67878;46.242;5.974;2023-04-29T02:14:08;2.42;;;1.40;;
78581;SDS011;67878;46.242;5.974;2023-04-29T02:16:34;2.05;;;1.30;;
78581;SDS011;67878;46.242;5.974;2023-04-29T02:18:59;1.60;;;1.30;;
78581;SDS011;67878;46.242;5.974;2023-04-29T02:21:25;1.67;;;1.40;;
78581;SDS011;67878;46.242;5.974;2023-04-29T02:23:51;2.72;;;1.30;;
78581;SDS011;67878;46.242;5.974;2023-04-29T02:26:18;1.50;;;1.40;;
78581;SDS011;67878;46.242;5.974;2023-04-29T02:28:44;2.90;;;1.50;;
78581;SDS011;67878;46.242;5.974;2023-04-29T02:31:09;1.60;;;1.50;;
78581;SDS011;67878;46.242;5.974;2023-04-29T02:33:34;1.50;;;1.40;;
78581;SDS011;67878;46.242;5.974;2023-04-29T02:36:00;1.77;;;1.30;;
78581;SDS011;67878;46.242;5.974;2023-04-29T02:38:26;2.15;;;1.23;;
78581;SDS011;67878;46.242;5.974;2023-04-29T02:40:51;1.88;;;1.45;;
78581;SDS011;67878;46.242;5.974;2023-04-29T02:43:17;1.48;;;1.38;;
78581;SDS011;67878;46.242;5.974;2023-04-29T02:45:42;1.98;;;1.60;;
78581;SDS011;67878;46.242;5.974;2023-04-29T02:48:08;2.15;;;1.42;;
78581;SDS011;67878;46.242;5.974;2023-04-29T02:50:34;3.58;;;1.40;;
78581;SDS011;67878;46.242;5.974;2023-04-29T02:53:00;1.48;;;1.23;;
78581;SDS011;67878;46.242;5.974;2023-04-29T02:55:25;1.77;;;1.20;;
78581;SDS011;67878;46.242;5.974;2023-04-29T02:57:51;2.95;;;1.50;;
78581;SDS011;67878;46.242;5.974;2023-04-29T03:00:17;2.38;;;1.50;;
78581;SDS011;67878;46.242;5.974;2023-04-29T03:02:42;1.42;;;1.30;;
78581;SDS011;67878;46.242;5.974;2023-04-29T03:05:08;1.83;;;1.50;;
78581;SDS011;67878;46.242;5.974;2023-04-29T03:07:34;1.20;;;1.10;;
78581;SDS011;67878;46.242;5.974;2023-04-29T03:09:59;2.50;;;1.20;;
78581;SDS011;67878;46.242;5.974;2023-04-29T03:12:25;1.48;;;1.38;;
78581;SDS011;67878;46.242;5.974;2023-04-29T03:14:51;1.98;;;1.30;;
78581;SDS011;67878;46.242;5.974;2023-04-29T03:17:17;1.70;;;1.20;;
78581;SDS011;67878;46.242;5.974;2023-04-29T03:19:43;1.70;;;1.50;;
78581;SDS011;67878;46.242;5.974;2023-04-29T03:22:08;2.45;;;1.60;;
78581;SDS011;67878;46.242;5.974;2023-04-29T03:24:37;2.47;;;1.30;;
78581;SDS011;67878;46.242;5.974;2023-04-29T03:27:03;2.22;;;1.50;;
78581;SDS011;67878;46.242;5.974;2023-04-29T03:29:30;1.33;;;1.23;;
78581;SDS011;67878;46.242;5.974;2023-04-29T03:31:56;2.13;;;1.35;;
78581;SDS011;67878;46.242;5.974;2023-04-29T03:34:21;1.40;;;1.23;;
78581;SDS011;67878;46.242;5.974;2023-04-29T03:36:47;1.33;;;1.02;;
78581;SDS011;67878;46.242;5.974;2023-04-29T03:39:12;1.30;;;1.20;;
78581;SDS011;67878;46.242;5.974;2023-04-29T03:41:38;1.38;;;1.23;;
78581;SDS011;67878;46.242;5.974;2023-04-29T03:44:04;2.33;;;1.50;;
78581;SDS011;67878;46.242;5.974;2023-04-29T03:46:30;1.45;;;1.15;;
78581;SDS011;67878;46.242;5.974;2023-04-29T03:48:56;2.28;;;1.50;;
78581;SDS011;67878;46.242;5.974;2023-04-29T03:51:22;1.30;;;1.17;;
78581;SDS011;67878;46.242;5.974;2023-04-29T03:53:48;2.15;;;1.23;;
78581;SDS011;67878;46.242;5.974;2023-04-29T03:56:15;1.80;;;1.10;;
78581;SDS011;67878;46.242;5.974;2023-04-29T03:58:52;1.35;;;1.17;;
78581;SDS011;67878;46.242;5.974;2023-04-29T04:01:21;1.48;;;1.30;;
78581;SDS011;67878;46.242;5.974;2023-04-29T04:03:46;1.95;;;1.27;;
78581;SDS011;67878;46.242;5.974;2023-04-29T04:06:14;1.67;;;1.30;;
78581;SDS011;67878;46.242;5.974;2023-04-29T04:08:40;2.40;;;1.30;;
78581;SDS011;67878;46.242;5.974;2023-04-29T04:11:06;1.65;;;1.30;;
78581;SDS011;67878;46.242;5.974;2023-04-29T04:13:32;1.45;;;1.27;;
78581;SDS011;67878;46.242;5.974;2023-04-29T04:15:58;1.98;;;1.50;;
78581;SDS011;67878;46.242;5.974;2023-04-29T04:18:24;1.95;;;1.50;;
78581;SDS011;67878;46.242;5.974;2023-04-29T04:20:51;2.00;;;1.20;;
78581;SDS011;67878;46.242;5.974;2023-04-29T04:23:22;1.92;;;1.20;;
78581;SDS011;67878;46.242;5.974;2023-04-29T04:25:48;2.40;;;1.20;;
78581;SDS011;67878;46.242;5.974;2023-04-29T04:28:14;1.75;;;1.30;;
78581;SDS011;67878;46.242;5.974;2023-04-29T04:30:40;1.75;;;1.20;;
78581;SDS011;67878;46.242;5.974;2023-04-29T04:33:07;1.60;;;1.40;;
78581;SDS011;67878;46.242;5.974;2023-04-29T04:35:32;1.73;;;1.15;;
78581;SDS011;67878;46.242;5.974;2023-04-29T04:37:57;1.70;;;1.40;;
78581;SDS011;67878;46.242;5.974;2023-04-29T04:40:23;2.25;;;1.30;;
78581;SDS011;67878;46.242;5.974;2023-04-29T04:42:49;1.67;;;1.17;;
78581;SDS011;67878;46.242;5.974;2023-04-29T04:45:14;2.15;;;1.40;;
78581;SDS011;67878;46.242;5.974;2023-04-29T04:47:40;2.00;;;1.20;;
78581;SDS011;67878;46.242;5.974;2023-04-29T04:50:07;2.30;;;1.40;;
78581;SDS011;67878;46.242;5.974;2023-04-29T04:52:33;2.17;;;1.25;;
78581;SDS011;67878;46.242;5.974;2023-04-29T04:54:59;1.35;;;1.25;;
78581;SDS011;67878;46.242;5.974;2023-04-29T04:57:24;1.30;;;1.13;;
78581;SDS011;67878;46.242;5.974;2023-04-29T04:59:50;1.30;;;1.20;;
78581;SDS011;67878;46.242;5.974;2023-04-29T05:02:16;1.35;;;1.10;;
78581;SDS011;67878;46.242;5.974;2023-04-29T05:04:41;1.20;;;1.10;;
78581;SDS011;67878;46.242;5.974;2023-04-29T05:07:06;2.08;;;1.17;;
78581;SDS011;67878;46.242;5.974;2023-04-29T05:09:32;2.47;;;1.30;;
78581;SDS011;67878;46.242;5.974;2023-04-29T05:11:57;1.08;;;0.98;;
78581;SDS011;67878;46.242;5.974;2023-04-29T05:14:24;1.55;;;1.25;;
78581;SDS011;67878;46.242;5.974;2023-04-29T05:16:51;1.90;;;1.40;;
78581;SDS011;67878;46.242;5.974;2023-04-29T05:19:26;1.38;;;1.17;;
78581;SDS011;67878;46.242;5.974;2023-04-29T05:21:52;1.20;;;1.00;;
78581;SDS011;67878;46.242;5.974;2023-04-29T05:24:18;2.47;;;1.20;;
78581;SDS011;67878;46.242;5.974;2023-04-29T05:26:44;1.63;;;1.25;;
78581;SDS011;67878;46.242;5.974;2023-04-29T05:29:10;2.20;;;1.20;;
78581;SDS011;67878;46.242;5.974;2023-04-29T05:31:36;1.60;;;1.17;;
78581;SDS011;67878;46.242;5.974;2023-04-29T05:34:06;1.10;;;1.00;;
78581;SDS011;67878;46.242;5.974;2023-04-29T05:36:36;2.55;;;1.30;;
78581;SDS011;67878;46.242;5.974;2023-04-29T05:39:05;1.75;;;1.00;;
78581;SDS011;67878;46.242;5.974;2023-04-29T05:41:33;3.50;;;1.25;;
78581;SDS011;67878;46.242;5.974;2023-04-29T05:44:04;1.45;;;1.05;;
78581;SDS011;67878;46.242;5.974;2023-04-29T05:46:32;1.80;;;1.30;;
78581;SDS011;67878;46.242;5.974;2023-04-29T05:48:59;3.28;;;1.00;;
78581;SDS011;67878;46.242;5.974;2023-04-29T05:51:24;2.15;;;1.00;;
78581;SDS011;67878;46.242;5.974;2023-04-29T05:53:50;1.75;;;1.08;;
78581;SDS011;67878;46.242;5.974;2023-04-29T05:56:15;1.95;;;1.00;;
78581;SDS011;67878;46.242;5.974;2023-04-29T05:58:43;1.90;;;1.10;;
78581;SDS011;67878;46.242;5.974;2023-04-29T06:01:11;1.55;;;1.00;;
78581;SDS011;67878;46.242;5.974;2023-04-29T06:03:38;1.33;;;1.10;;
78581;SDS011;67878;46.242;5.974;2023-04-29T06:06:09;1.38;;;1.10;;
78581;SDS011;67878;46.242;5.974;2023-04-29T06:08:35;4.20;;;1.23;;
78581;SDS011;67878;46.242;5.974;2023-04-29T06:11:01;1.75;;;1.10;;
78581;SDS011;67878;46.242;5.974;2023-04-29T06:15:54;3.40;;;2.00;;
78581;SDS011;67878;46.242;5.974;2023-04-29T06:18:20;4.40;;;2.35;;
78581;SDS011;67878;46.242;5.974;2023-04-29T06:20:45;2.47;;;1.70;;
78581;SDS011;67878;46.242;5.974;2023-04-29T06:23:11;3.63;;;1.40;;
78581;SDS011;67878;46.242;5.974;2023-04-29T06:25:36;3.53;;;1.80;;
78581;SDS011;67878;46.242;5.974;2023-04-29T06:28:02;2.92;;;1.90;;
78581;SDS011;67878;46.242;5.974;2023-04-29T06:30:28;3.60;;;1.63;;
78581;SDS011;67878;46.242;5.974;2023-04-29T06:32:53;3.05;;;1.65;;
78581;SDS011;67878;46.242;5.974;2023-04-29T06:35:19;3.08;;;1.50;;
78581;SDS011;67878;46.242;5.974;2023-04-29T06:37:44;2.47;;;1.50;;
78581;SDS011;67878;46.242;5.974;2023-04-29T06:40:11;3.30;;;1.50;;
78581;SDS011;67878;46.242;5.974;2023-04-29T06:42:37;2.08;;;1.50;;
78581;SDS011;67878;46.242;5.974;2023-04-29T06:45:02;1.65;;;1.50;;
78581;SDS011;67878;46.242;5.974;2023-04-29T06:47:28;3.90;;;2.70;;
78581;SDS011;67878;46.242;5.974;2023-04-29T06:49:56;4.80;;;2.40;;
78581;SDS011;67878;46.242;5.974;2023-04-29T06:52:27;3.00;;;2.47;;
78581;SDS011;67878;46.242;5.974;2023-04-29T06:54:53;5.97;;;2.15;;
78581;SDS011;67878;46.242;5.974;2023-04-29T06:57:19;2.05;;;1.85;;
78581;SDS011;67878;46.242;5.974;2023-04-29T06:59:44;2.70;;;1.90;;
78581;SDS011;67878;46.242;5.974;2023-04-29T07:02:10;3.65;;;2.10;;
78581;SDS011;67878;46.242;5.974;2023-04-29T07:04:36;2.10;;;1.90;;
78581;SDS011;67878;46.242;5.974;2023-04-29T07:07:03;2.50;;;1.85;;
78581;SDS011;67878;46.242;5.974;2023-04-29T07:09:31;4.60;;;1.90;;
78581;SDS011;67878;46.242;5.974;2023-04-29T07:11:58;2.83;;;1.73;;
78581;SDS011;67878;46.242;5.974;2023-04-29T07:14:27;5.35;;;2.70;;
78581;SDS011;67878;46.242;5.974;2023-04-29T07:16:53;4.10;;;2.72;;
78581;SDS011;67878;46.242;5.974;2023-04-29T07:19:19;11.32;;;8.93;;
78581;SDS011;67878;46.242;5.974;2023-04-29T07:21:44;9.40;;;7.50;;
78581;SDS011;67878;46.242;5.974;2023-04-29T07:24:10;9.88;;;5.10;;
78581;SDS011;67878;46.242;5.974;2023-04-29T07:26:35;10.20;;;5.03;;
78581;SDS011;67878;46.242;5.974;2023-04-29T07:29:00;5.38;;;4.55;;
78581;SDS011;67878;46.242;5.974;2023-04-29T07:31:26;7.72;;;5.30;;
78581;SDS011;67878;46.242;5.974;2023-04-29T07:33:52;8.10;;;4.72;;
78581;SDS011;67878;46.242;5.974;2023-04-29T07:36:19;7.18;;;4.75;;
78581;SDS011;67878;46.242;5.974;2023-04-29T07:38:44;8.07;;;5.20;;
78581;SDS011;67878;46.242;5.974;2023-04-29T07:41:10;5.45;;;4.30;;
78581;SDS011;67878;46.242;5.974;2023-04-29T07:43:35;5.65;;;3.80;;
78581;SDS011;67878;46.242;5.974;2023-04-29T07:46:00;4.65;;;3.67;;
78581;SDS011;67878;46.242;5.974;2023-04-29T07:48:26;6.22;;;4.13;;
78581;SDS011;67878;46.242;5.974;2023-04-29T07:50:53;6.22;;;4.60;;
78581;SDS011;67878;46.242;5.974;2023-04-29T07:53:24;4.97;;;3.70;;
78581;SDS011;67878;46.242;5.974;2023-04-29T07:55:49;5.32;;;3.80;;
78581;SDS011;67878;46.242;5.974;2023-04-29T07:58:16;4.18;;;3.53;;
78581;SDS011;67878;46.242;5.974;2023-04-29T08:00:44;5.30;;;3.63;;
78581;SDS011;67878;46.242;5.974;2023-04-29T08:03:11;6.50;;;3.83;;
78581;SDS011;67878;46.242;5.974;2023-04-29T08:05:37;3.50;;;3.20;;
78581;SDS011;67878;46.242;5.974;2023-04-29T08:08:03;3.75;;;3.33;;
78581;SDS011;67878;46.242;5.974;2023-04-29T08:10:28;4.47;;;3.55;;
78581;SDS011;67878;46.242;5.974;2023-04-29T08:12:54;6.88;;;3.30;;
78581;SDS011;67878;46.242;5.974;2023-04-29T08:15:20;4.50;;;3.33;;
78581;SDS011;67878;46.242;5.974;2023-04-29T08:17:45;3.15;;;2.85;;
78581;SDS011;67878;46.242;5.974;2023-04-29T08:20:11;3.53;;;3.03;;
78581;SDS011;67878;46.242;5.974;2023-04-29T08:22:37;6.32;;;3.55;;
78581;SDS011;67878;46.242;5.974;2023-04-29T08:25:02;5.40;;;3.00;;
78581;SDS011;67878;46.242;5.974;2023-04-29T08:27:29;4.70;;;3.25;;
78581;SDS011;67878;46.242;5.974;2023-04-29T08:29:55;3.65;;;3.10;;
78581;SDS011;67878;46.242;5.974;2023-04-29T08:32:20;3.50;;;3.20;;
78581;SDS011;67878;46.242;5.974;2023-04-29T08:34:46;3.20;;;2.90;;
78581;SDS011;67878;46.242;5.974;2023-04-29T08:37:13;4.20;;;2.90;;
78581;SDS011;67878;46.242;5.974;2023-04-29T08:39:41;3.85;;;2.80;;
78581;SDS011;67878;46.242;5.974;2023-04-29T08:42:14;5.65;;;3.05;;
78581;SDS011;67878;46.242;5.974;2023-04-29T08:44:48;3.17;;;2.55;;
78581;SDS011;67878;46.242;5.974;2023-04-29T08:47:16;3.20;;;2.90;;
78581;SDS011;67878;46.242;5.974;2023-04-29T08:49:42;3.35;;;3.05;;
78581;SDS011;67878;46.242;5.974;2023-04-29T08:52:07;3.00;;;2.58;;
78581;SDS011;67878;46.242;5.974;2023-04-29T08:54:33;3.53;;;3.20;;
78581;SDS011;67878;46.242;5.974;2023-04-29T08:56:58;3.10;;;2.47;;
78581;SDS011;67878;46.242;5.974;2023-04-29T08:59:24;6.07;;;2.60;;
78581;SDS011;67878;46.242;5.974;2023-04-29T09:01:50;3.75;;;2.58;;
78581;SDS011;67878;46.242;5.974;2023-04-29T09:06:55;4.45;;;2.50;;
78581;SDS011;67878;46.242;5.974;2023-04-29T09:09:23;7.07;;;2.80;;
78581;SDS011;67878;46.242;5.974;2023-04-29T09:11:49;4.20;;;3.05;;
78581;SDS011;67878;46.242;5.974;2023-04-29T09:14:14;6.63;;;5.13;;
78581;SDS011;67878;46.242;5.974;2023-04-29T09:16:40;7.10;;;4.30;;
78581;SDS011;67878;46.242;5.974;2023-04-29T09:19:06;4.70;;;4.30;;
78581;SDS011;67878;46.242;5.974;2023-04-29T09:21:31;6.13;;;3.80;;
78581;SDS011;67878;46.242;5.974;2023-04-29T09:24:00;4.70;;;4.10;;
78581;SDS011;67878;46.242;5.974;2023-04-29T09:26:32;5.30;;;3.72;;
78581;SDS011;67878;46.242;5.974;2023-04-29T09:29:05;4.95;;;3.70;;
78581;SDS011;67878;46.242;5.974;2023-04-29T09:34:02;9.05;;;3.95;;
78581;SDS011;67878;46.242;5.974;2023-04-29T09:39:20;16.77;;;7.60;;
78581;SDS011;67878;46.242;5.974;2023-04-29T09:44:21;23.33;;;9.73;;
78581;SDS011;67878;46.242;5.974;2023-04-29T09:47:01;34.50;;;12.50;;
78581;SDS011;67878;46.242;5.974;2023-04-29T09:49:33;32.85;;;11.23;;
78581;SDS011;67878;46.242;5.974;2023-04-29T09:52:05;36.80;;;13.50;;
78581;SDS011;67878;46.242;5.974;2023-04-29T09:54:38;56.85;;;18.20;;
78581;SDS011;67878;46.242;5.974;2023-04-29T09:57:06;62.55;;;19.25;;
78581;SDS011;67878;46.242;5.974;2023-04-29T09:59:34;56.20;;;19.30;;
78581;SDS011;67878;46.242;5.974;2023-04-29T10:04:37;62.38;;;18.95;;
78581;SDS011;67878;46.242;5.974;2023-04-29T10:07:04;59.45;;;18.77;;
78581;SDS011;67878;46.242;5.974;2023-04-29T10:09:36;56.33;;;18.38;;
78581;SDS011;67878;46.242;5.974;2023-04-29T10:12:04;59.90;;;19.30;;
78581;SDS011;67878;46.242;5.974;2023-04-29T10:14:31;50.65;;;16.20;;
78581;SDS011;67878;46.242;5.974;2023-04-29T10:17:15;38.92;;;13.35;;
78581;SDS011;67878;46.242;5.974;2023-04-29T10:22:26;43.53;;;13.05;;
78581;SDS011;67878;46.242;5.974;2023-04-29T10:24:54;28.40;;;8.93;;
78581;SDS011;67878;46.242;5.974;2023-04-29T10:27:21;16.10;;;5.38;;
78581;SDS011;67878;46.242;5.974;2023-04-29T10:29:48;27.65;;;8.32;;
78581;SDS011;67878;46.242;5.974;2023-04-29T10:32:14;21.08;;;7.85;;
78581;SDS011;67878;46.242;5.974;2023-04-29T10:34:40;18.75;;;7.50;;
78581;SDS011;67878;46.242;5.974;2023-04-29T10:37:09;22.08;;;8.13;;
78581;SDS011;67878;46.242;5.974;2023-04-29T10:39:39;23.67;;;8.63;;
78581;SDS011;67878;46.242;5.974;2023-04-29T10:42:24;22.25;;;8.02;;
78581;SDS011;67878;46.242;5.974;2023-04-29T10:45:20;25.65;;;7.38;;
78581;SDS011;67878;46.242;5.974;2023-04-29T10:50:32;17.13;;;6.43;;
78581;SDS011;67878;46.242;5.974;2023-04-29T10:55:25;22.17;;;6.60;;
78581;SDS011;67878;46.242;5.974;2023-04-29T10:57:54;15.80;;;6.05;;
78581;SDS011;67878;46.242;5.974;2023-04-29T11:00:27;15.57;;;5.03;;
78581;SDS011;67878;46.242;5.974;2023-04-29T11:02:53;15.07;;;5.70;;
78581;SDS011;67878;46.242;5.974;2023-04-29T11:05:33;16.80;;;5.68;;
78581;SDS011;67878;46.242;5.974;2023-04-29T11:10:41;12.93;;;5.43;;
78581;SDS011;67878;46.242;5.974;2023-04-29T11:13:23;11.90;;;4.80;;
78581;SDS011;67878;46.242;5.974;2023-04-29T11:15:52;12.23;;;5.40;;
78581;SDS011;67878;46.242;5.974;2023-04-29T11:18:22;13.18;;;4.72;;
78581;SDS011;67878;46.242;5.974;2023-04-29T11:23:36;9.80;;;4.38;;
78581;SDS011;67878;46.242;5.974;2023-04-29T11:26:05;9.40;;;4.47;;
78581;SDS011;67878;46.242;5.974;2023-04-29T11:28:30;9.32;;;4.50;;
78581;SDS011;67878;46.242;5.974;2023-04-29T11:30:56;10.45;;;4.22;;
78581;SDS011;67878;46.242;5.974;2023-04-29T11:33:22;10.10;;;4.50;;
78581;SDS011;67878;46.242;5.974;2023-04-29T11:35:49;11.95;;;4.50;;
78581;SDS011;67878;46.242;5.974;2023-04-29T11:38:15;9.80;;;3.95;;
78581;SDS011;67878;46.242;5.974;2023-04-29T11:40:49;11.13;;;4.95;;
78581;SDS011;67878;46.242;5.974;2023-04-29T11:43:18;11.30;;;4.70;;
78581;SDS011;67878;46.242;5.974;2023-04-29T11:45:44;11.18;;;5.03;;
78581;SDS011;67878;46.242;5.974;2023-04-29T11:48:18;10.05;;;5.03;;
78581;SDS011;67878;46.242;5.974;2023-04-29T11:50:51;9.70;;;5.35;;
78581;SDS011;67878;46.242;5.974;2023-04-29T11:53:25;8.88;;;4.63;;
78581;SDS011;67878;46.242;5.974;2023-04-29T11:55:52;7.35;;;4.70;;
78581;SDS011;67878;46.242;5.974;2023-04-29T11:58:21;9.27;;;4.30;;
78581;SDS011;67878;46.242;5.974;2023-04-29T12:00:47;9.25;;;4.70;;
78581;SDS011;67878;46.242;5.974;2023-04-29T12:03:13;7.53;;;4.10;;
78581;SDS011;67878;46.242;5.974;2023-04-29T12:05:45;9.68;;;3.90;;
78581;SDS011;67878;46.242;5.974;2023-04-29T12:08:23;7.18;;;4.03;;
78581;SDS011;67878;46.242;5.974;2023-04-29T12:10:49;7.22;;;4.53;;
78581;SDS011;67878;46.242;5.974;2023-04-29T12:13:16;8.02;;;4.20;;
78581;SDS011;67878;46.242;5.974;2023-04-29T12:15:43;9.10;;;4.13;;
78581;SDS011;67878;46.242;5.974;2023-04-29T12:18:09;6.53;;;3.58;;
78581;SDS011;67878;46.242;5.974;2023-04-29T12:20:35;6.35;;;3.63;;
78581;SDS011;67878;46.242;5.974;2023-04-29T12:23:14;5.70;;;3.40;;
78581;SDS011;67878;46.242;5.974;2023-04-29T12:25:54;7.97;;;4.00;;
78581;SDS011;67878;46.242;5.974;2023-04-29T12:30:47;7.10;;;3.97;;
78581;SDS011;67878;46.242;5.974;2023-04-29T12:33:26;6.05;;;4.20;;
78581;SDS011;67878;46.242;5.974;2023-04-29T12:35:53;6.72;;;3.80;;
78581;SDS011;67878;46.242;5.974;2023-04-29T12:38:24;5.97;;;4.15;;
78581;SDS011;67878;46.242;5.974;2023-04-29T12:40:55;5.60;;;4.22;;
78581;SDS011;67878;46.242;5.974;2023-04-29T12:43:26;6.20;;;3.63;;
78581;SDS011;67878;46.242;5.974;2023-04-29T12:46:05;5.80;;;4.32;;
78581;SDS011;67878;46.242;5.974;2023-04-29T12:48:35;6.90;;;3.70;;
78581;SDS011;67878;46.242;5.974;2023-04-29T12:51:10;10.15;;;4.13;;
78581;SDS011;67878;46.242;5.974;2023-04-29T12:53:36;6.30;;;3.35;;
78581;SDS011;67878;46.242;5.974;2023-04-29T12:56:03;6.15;;;3.60;;
78581;SDS011;67878;46.242;5.974;2023-04-29T12:58:30;4.68;;;3.15;;
78581;SDS011;67878;46.242;5.974;2023-04-29T13:01:02;6.55;;;3.83;;
78581;SDS011;67878;46.242;5.974;2023-04-29T13:03:30;4.10;;;3.05;;
78581;SDS011;67878;46.242;5.974;2023-04-29T13:05:56;4.38;;;3.28;;
78581;SDS011;67878;46.242;5.974;2023-04-29T13:08:23;5.65;;;2.90;;
78581;SDS011;67878;46.242;5.974;2023-04-29T13:10:48;4.75;;;3.10;;
78581;SDS011;67878;46.242;5.974;2023-04-29T13:13:14;4.93;;;3.10;;
78581;SDS011;67878;46.242;5.974;2023-04-29T13:15:40;5.18;;;3.35;;
78581;SDS011;67878;46.242;5.974;2023-04-29T13:18:06;5.93;;;3.95;;
78581;SDS011;67878;46.242;5.974;2023-04-29T13:20:36;4.47;;;3.67;;
78581;SDS011;67878;46.242;5.974;2023-04-29T13:23:04;5.70;;;3.90;;
78581;SDS011;67878;46.242;5.974;2023-04-29T13:25:30;5.15;;;3.70;;
78581;SDS011;67878;46.242;5.974;2023-04-29T13:27:55;4.85;;;3.38;;
78581;SDS011;67878;46.242;5.974;2023-04-29T13:30:20;4.63;;;3.40;;
78581;SDS011;67878;46.242;5.974;2023-04-29T13:32:46;4.93;;;3.63;;
78581;SDS011;67878;46.242;5.974;2023-04-29T13:37:51;5.05;;;3.10;;
78581;SDS011;67878;46.242;5.974;2023-04-29T13:40:18;5.50;;;3.22;;
78581;SDS011;67878;46.242;5.974;2023-04-29T13:42:44;6.88;;;4.47;;
78581;SDS011;67878;46.242;5.974;2023-04-29T13:45:09;9.70;;;4.32;;
78581;SDS011;67878;46.242;5.974;2023-04-29T13:47:35;7.30;;;4.38;;
78581;SDS011;67878;46.242;5.974;2023-04-29T13:50:00;5.93;;;4.80;;
78581;SDS011;67878;46.242;5.974;2023-04-29T13:52:27;5.70;;;3.97;;
78581;SDS011;67878;46.242;5.974;2023-04-29T13:54:54;5.18;;;3.80;;
78581;SDS011;67878;46.242;5.974;2023-04-29T13:57:20;4.88;;;3.38;;
78581;SDS011;67878;46.242;5.974;2023-04-29T13:59:45;4.25;;;3.42;;
78581;SDS011;67878;46.242;5.974;2023-04-29T14:02:11;4.07;;;3.08;;
78581;SDS011;67878;46.242;5.974;2023-04-29T14:04:38;3.80;;;3.08;;
78581;SDS011;67878;46.242;5.974;2023-04-29T14:07:05;4.63;;;3.65;;
78581;SDS011;67878;46.242;5.974;2023-04-29T14:09:30;5.72;;;3.20;;
78581;SDS011;67878;46.242;5.974;2023-04-29T14:11:56;4.57;;;3.30;;
78581;SDS011;67878;46.242;5.974;2023-04-29T14:14:22;4.32;;;3.00;;
78581;SDS011;67878;46.242;5.974;2023-04-29T14:16:48;5.60;;;3.50;;
78581;SDS011;67878;46.242;5.974;2023-04-29T14:19:13;3.63;;;3.00;;
78581;SDS011;67878;46.242;5.974;2023-04-29T14:21:39;5.13;;;3.40;;
78581;SDS011;67878;46.242;5.974;2023-04-29T14:24:04;3.47;;;3.15;;
78581;SDS011;67878;46.242;5.974;2023-04-29T14:26:30;3.30;;;2.78;;
78581;SDS011;67878;46.242;5.974;2023-04-29T14:28:56;3.92;;;3.05;;
78581;SDS011;67878;46.242;5.974;2023-04-29T14:31:25;3.83;;;2.70;;
78581;SDS011;67878;46.242;5.974;2023-04-29T14:33:54;2.67;;;2.45;;
78581;SDS011;67878;46.242;5.974;2023-04-29T14:36:22;2.78;;;2.30;;
78581;SDS011;67878;46.242;5.974;2023-04-29T14:38:50;2.78;;;2.50;;
78581;SDS011;67878;46.242;5.974;2023-04-29T14:41:17;4.53;;;2.67;;
78581;SDS011;67878;46.242;5.974;2023-04-29T14:43:49;3.20;;;2.10;;
78581;SDS011;67878;46.242;5.974;2023-04-29T14:46:14;4.25;;;2.22;;
78581;SDS011;67878;46.242;5.974;2023-04-29T14:48:40;2.50;;;2.00;;
78581;SDS011;67878;46.242;5.974;2023-04-29T14:51:06;2.80;;;1.80;;
78581;SDS011;67878;46.242;5.974;2023-04-29T14:53:32;2.45;;;1.60;;
78581;SDS011;67878;46.242;5.974;2023-04-29T14:55:59;2.97;;;2.10;;
78581;SDS011;67878;46.242;5.974;2023-04-29T14:58:25;2.17;;;1.60;;
78581;SDS011;67878;46.242;5.974;2023-04-29T15:00:50;2.30;;;1.88;;
78581;SDS011;67878;46.242;5.974;2023-04-29T15:03:16;1.90;;;1.77;;
78581;SDS011;67878;46.242;5.974;2023-04-29T15:05:42;2.53;;;1.80;;
78581;SDS011;67878;46.242;5.974;2023-04-29T15:08:08;2.63;;;1.60;;
78581;SDS011;67878;46.242;5.974;2023-04-29T15:10:34;2.58;;;1.75;;
78581;SDS011;67878;46.242;5.974;2023-04-29T15:13:00;7.07;;;2.22;;
78581;SDS011;67878;46.242;5.974;2023-04-29T15:15:26;2.72;;;1.80;;
78581;SDS011;67878;46.242;5.974;2023-04-29T15:17:53;3.80;;;1.77;;
78581;SDS011;67878;46.242;5.974;2023-04-29T15:20:18;6.00;;;2.58;;
78581;SDS011;67878;46.242;5.974;2023-04-29T15:22:44;4.88;;;3.97;;
78581;SDS011;67878;46.242;5.974;2023-04-29T15:25:10;4.45;;;3.10;;
78581;SDS011;67878;46.242;5.974;2023-04-29T15:27:37;3.65;;;2.80;;
78581;SDS011;67878;46.242;5.974;2023-04-29T15:30:03;3.55;;;2.90;;
78581;SDS011;67878;46.242;5.974;2023-04-29T15:32:29;3.53;;;2.50;;